Current Conditions

Updated: 30-Jun-2016 2:07 PM  
Summary / Temperature Wind Rain






Feels like: 99°F

1-hour difference
2.9°F 2.9°F warmer than last hour.

24-hour difference
2.3°F2.3°F colder than yesterday at this time.

  Today Yesterday
High: 101.4°F
2:02 PM
109.2°F
5:17 PM
Low: 68.4°F
5:30 AM
72.5°F
5:47 AM
Wind from WSW WSW
1.9
Gust:  3.0 mph
1 Beaufort - Light Air

Today: 6.0 - 11:00 AM
Month: 11.0 mph - Jun 16
Rain Today: 0.00 in
Current Rate (/hr): 0.000 in
Max Rate (/hr):
Rain Yesterday: 0.00 in
Storm Rain: 0.00 in
This Month: 0.01 in
Season Total: 9.69 in
Last Rain Event: 18 days ago
Humidity / Barometer Sun / Moon
Humidity: 19 Increased 1.0% in the last hour.
Dew Point: 51.4°F Increased 3.8°F in the last hour.
Barometer: 29.731 inHg  
Baro Trend: Falling slowly
Sunrise: 5:42 AM
Sunset: 8:17 PM
Moonrise: 2:36 AM
Moonset: 4:16 PM
Sky Conditions UV Index
Summary: Clear
Visibility: 10 miles
Clouds: None
KPTV - 1:56 PM PDT
Current: 12.0  Extreme 
Thursday: 9.5  Very High 
Friday: 9.9  Very High 
Air Quality Fire Danger
 Moderate 
Ozone 72 ppb
PM 2.5 11 μg/m3
2:00 PM PDT
Current: 110  Extreme 

Local Alerts Local Forecast
Local NWS Alerts
Today

Mostly
Sunny
High 104
Tonight

Mostly
Clear
Low 66
Fri

Mostly
Sunny
High 104
Fri night

Mostly
Clear
Low 66
Sat

Mostly
Sunny
High 100
Sat night

Mostly
Clear
Low 64
Sun

Mostly
Sunny
High 99

Local Radar Local Satellite Neighborhood Cam Sky Cam
Local Radar Local Satellite Neighborhood Cam Sky Cam


Nearby Personal Stations

Weather Underground PWS KCAPORTE11 Weather Underground PWS KCAPORTE5 Weather Underground PWS KCAPORTE8

Nearby Airport Stations

KPTV - Porterville, California, USA
Distance from station: SSW 4mi, 7km
Updated: Thu, 30-Jun-2016 1:56pm PDT
Clear
Clear
 Wind from NNW
Wind: NNW 13 mph , 20 km/h
Temperature: 99°F , 37°C
Dew Point: 45°F , 7°C
Humidity: 16%
Barometer: 29.80 inHg , 1009.1 hPa
Clouds: Clear
Visibility: 10 miles , 16 km
2016/06/30 20:56 KPTV 302056Z AUTO 33011KT 10SM CLR 37/07 A2980 RMK AO2 SLP095 T03720072 58016
KVIS - Visalia, California, USA
Distance from station: NW 27mi, 43km
Updated: Thu, 30-Jun-2016 1:56pm PDT
Clear
Clear
 Wind from varies
Wind: varies 6 mph , 9 km/h
Temperature: 97°F , 36°C
Dew Point: 54°F , 12°C
Humidity: 23%
Barometer: 29.80 inHg , 1009.1 hPa
Clouds: Clear
Visibility: 10 miles , 16 km
2016/06/30 20:56 KVIS 302056Z AUTO VRB05KT 10SM CLR 36/12 A2980 RMK AO2 SLP092 T03560117 58015

Metar display script from Saratoga-Weather.org



Visitor Map